sensor_id;sensor_type;location;lat;lon;timestamp;P1;durP1;ratioP1;P2;durP2;ratioP2
78848;SDS011;68197;41.864;21.942;2023-04-12T00:01:04;18.30;;;12.52;;
78848;SDS011;68197;41.864;21.942;2023-04-12T00:03:30;16.95;;;13.00;;
78848;SDS011;68197;41.864;21.942;2023-04-12T00:05:58;20.60;;;15.50;;
78848;SDS011;68197;41.864;21.942;2023-04-12T00:08:27;21.55;;;15.68;;
78848;SDS011;68197;41.864;21.942;2023-04-12T00:10:57;24.88;;;17.08;;
78848;SDS011;68197;41.864;21.942;2023-04-12T00:13:23;25.40;;;18.63;;
78848;SDS011;68197;41.864;21.942;2023-04-12T00:15:49;27.55;;;17.63;;
78848;SDS011;68197;41.864;21.942;2023-04-12T00:18:15;27.60;;;17.95;;
78848;SDS011;68197;41.864;21.942;2023-04-12T00:20:41;29.92;;;18.55;;
78848;SDS011;68197;41.864;21.942;2023-04-12T00:23:08;31.98;;;19.67;;
78848;SDS011;68197;41.864;21.942;2023-04-12T00:25:34;25.35;;;17.90;;
78848;SDS011;68197;41.864;21.942;2023-04-12T00:28:03;27.48;;;18.85;;
78848;SDS011;68197;41.864;21.942;2023-04-12T00:30:29;27.08;;;19.00;;
78848;SDS011;68197;41.864;21.942;2023-04-12T00:32:55;22.52;;;16.63;;
78848;SDS011;68197;41.864;21.942;2023-04-12T00:35:21;22.98;;;16.52;;
78848;SDS011;68197;41.864;21.942;2023-04-12T00:37:48;20.65;;;15.27;;
78848;SDS011;68197;41.864;21.942;2023-04-12T00:40:14;22.23;;;17.08;;
78848;SDS011;68197;41.864;21.942;2023-04-12T00:42:40;19.95;;;15.00;;
78848;SDS011;68197;41.864;21.942;2023-04-12T00:45:07;22.02;;;15.38;;
78848;SDS011;68197;41.864;21.942;2023-04-12T00:47:34;20.85;;;14.27;;
78848;SDS011;68197;41.864;21.942;2023-04-12T00:50:00;20.50;;;15.20;;
78848;SDS011;68197;41.864;21.942;2023-04-12T00:52:27;22.48;;;15.40;;
78848;SDS011;68197;41.864;21.942;2023-04-12T00:54:58;26.67;;;18.23;;
78848;SDS011;68197;41.864;21.942;2023-04-12T00:57:24;26.67;;;18.70;;
78848;SDS011;68197;41.864;21.942;2023-04-12T00:59:51;29.48;;;19.58;;
78848;SDS011;68197;41.864;21.942;2023-04-12T01:02:17;29.25;;;18.88;;
78848;SDS011;68197;41.864;21.942;2023-04-12T01:04:44;30.67;;;19.48;;
78848;SDS011;68197;41.864;21.942;2023-04-12T01:07:24;26.77;;;17.20;;
78848;SDS011;68197;41.864;21.942;2023-04-12T01:09:56;25.38;;;16.08;;
78848;SDS011;68197;41.864;21.942;2023-04-12T01:15:07;27.67;;;18.10;;
78848;SDS011;68197;41.864;21.942;2023-04-12T01:20:22;21.00;;;14.07;;
78848;SDS011;68197;41.864;21.942;2023-04-12T01:27:56;19.45;;;13.48;;
78848;SDS011;68197;41.864;21.942;2023-04-12T01:30:22;20.38;;;14.32;;
78848;SDS011;68197;41.864;21.942;2023-04-12T01:32:51;19.92;;;13.80;;
78848;SDS011;68197;41.864;21.942;2023-04-12T01:35:18;20.13;;;13.57;;
78848;SDS011;68197;41.864;21.942;2023-04-12T01:37:45;19.45;;;13.30;;
78848;SDS011;68197;41.864;21.942;2023-04-12T01:40:12;18.48;;;12.63;;
78848;SDS011;68197;41.864;21.942;2023-04-12T01:42:38;15.95;;;11.85;;
78848;SDS011;68197;41.864;21.942;2023-04-12T01:45:06;20.13;;;14.90;;
78848;SDS011;68197;41.864;21.942;2023-04-12T01:47:32;18.30;;;13.48;;
78848;SDS011;68197;41.864;21.942;2023-04-12T01:52:54;21.70;;;13.80;;
78848;SDS011;68197;41.864;21.942;2023-04-12T01:55:24;18.58;;;14.38;;
78848;SDS011;68197;41.864;21.942;2023-04-12T01:57:52;19.25;;;13.30;;
78848;SDS011;68197;41.864;21.942;2023-04-12T02:00:18;19.90;;;13.98;;
78848;SDS011;68197;41.864;21.942;2023-04-12T02:02:45;24.55;;;15.02;;
78848;SDS011;68197;41.864;21.942;2023-04-12T02:05:11;19.83;;;13.73;;
78848;SDS011;68197;41.864;21.942;2023-04-12T02:07:37;18.55;;;13.40;;
78848;SDS011;68197;41.864;21.942;2023-04-12T02:10:04;16.60;;;12.52;;
78848;SDS011;68197;41.864;21.942;2023-04-12T02:12:30;16.77;;;12.13;;
78848;SDS011;68197;41.864;21.942;2023-04-12T02:14:56;15.93;;;12.32;;
78848;SDS011;68197;41.864;21.942;2023-04-12T02:17:24;16.60;;;12.00;;
78848;SDS011;68197;41.864;21.942;2023-04-12T02:19:50;17.23;;;13.35;;
78848;SDS011;68197;41.864;21.942;2023-04-12T02:22:16;20.23;;;14.70;;
78848;SDS011;68197;41.864;21.942;2023-04-12T02:24:42;21.13;;;14.98;;
78848;SDS011;68197;41.864;21.942;2023-04-12T02:27:08;20.92;;;14.73;;
78848;SDS011;68197;41.864;21.942;2023-04-12T02:29:35;21.92;;;15.52;;
78848;SDS011;68197;41.864;21.942;2023-04-12T02:32:01;19.40;;;14.63;;
78848;SDS011;68197;41.864;21.942;2023-04-12T02:34:27;22.15;;;14.63;;
78848;SDS011;68197;41.864;21.942;2023-04-12T02:36:58;27.52;;;20.75;;
78848;SDS011;68197;41.864;21.942;2023-04-12T02:39:24;24.30;;;17.55;;
78848;SDS011;68197;41.864;21.942;2023-04-12T02:41:50;21.73;;;15.70;;
78848;SDS011;68197;41.864;21.942;2023-04-12T02:44:16;20.27;;;13.88;;
78848;SDS011;68197;41.864;21.942;2023-04-12T02:46:42;20.60;;;14.60;;
78848;SDS011;68197;41.864;21.942;2023-04-12T02:49:08;21.35;;;14.98;;
78848;SDS011;68197;41.864;21.942;2023-04-12T02:51:34;21.33;;;16.08;;
78848;SDS011;68197;41.864;21.942;2023-04-12T02:54:02;19.92;;;13.50;;
78848;SDS011;68197;41.864;21.942;2023-04-12T02:56:28;19.35;;;13.30;;
78848;SDS011;68197;41.864;21.942;2023-04-12T02:58:55;20.20;;;14.77;;
78848;SDS011;68197;41.864;21.942;2023-04-12T03:01:21;19.73;;;14.60;;
78848;SDS011;68197;41.864;21.942;2023-04-12T03:03:47;22.13;;;15.40;;
78848;SDS011;68197;41.864;21.942;2023-04-12T03:06:13;25.13;;;16.70;;
78848;SDS011;68197;41.864;21.942;2023-04-12T03:08:39;27.35;;;18.50;;
78848;SDS011;68197;41.864;21.942;2023-04-12T03:11:05;32.30;;;22.17;;
78848;SDS011;68197;41.864;21.942;2023-04-12T03:13:31;30.83;;;22.35;;
78848;SDS011;68197;41.864;21.942;2023-04-12T03:15:58;28.75;;;20.60;;
78848;SDS011;68197;41.864;21.942;2023-04-12T03:18:24;24.60;;;17.23;;
78848;SDS011;68197;41.864;21.942;2023-04-12T03:20:50;22.38;;;16.13;;
78848;SDS011;68197;41.864;21.942;2023-04-12T03:23:17;22.50;;;16.20;;
78848;SDS011;68197;41.864;21.942;2023-04-12T03:25:44;19.55;;;13.30;;
78848;SDS011;68197;41.864;21.942;2023-04-12T03:28:10;21.52;;;14.95;;
78848;SDS011;68197;41.864;21.942;2023-04-12T03:30:36;20.50;;;13.57;;
78848;SDS011;68197;41.864;21.942;2023-04-12T03:33:02;22.77;;;14.05;;
78848;SDS011;68197;41.864;21.942;2023-04-12T03:35:28;27.55;;;16.40;;
78848;SDS011;68197;41.864;21.942;2023-04-12T03:37:55;24.55;;;16.15;;
78848;SDS011;68197;41.864;21.942;2023-04-12T03:40:21;25.00;;;13.98;;
78848;SDS011;68197;41.864;21.942;2023-04-12T03:42:47;19.90;;;13.63;;
78848;SDS011;68197;41.864;21.942;2023-04-12T03:45:13;23.33;;;16.48;;
78848;SDS011;68197;41.864;21.942;2023-04-12T03:47:39;25.27;;;17.92;;
78848;SDS011;68197;41.864;21.942;2023-04-12T03:50:06;35.15;;;28.17;;
78848;SDS011;68197;41.864;21.942;2023-04-12T03:52:32;18.15;;;12.60;;
78848;SDS011;68197;41.864;21.942;2023-04-12T03:54:59;21.23;;;13.98;;
78848;SDS011;68197;41.864;21.942;2023-04-12T03:57:25;22.45;;;14.35;;
78848;SDS011;68197;41.864;21.942;2023-04-12T03:59:51;21.77;;;13.80;;
78848;SDS011;68197;41.864;21.942;2023-04-12T04:02:17;19.85;;;12.90;;
78848;SDS011;68197;41.864;21.942;2023-04-12T04:04:43;19.17;;;12.55;;
78848;SDS011;68197;41.864;21.942;2023-04-12T04:07:10;34.92;;;21.52;;
78848;SDS011;68197;41.864;21.942;2023-04-12T04:09:36;22.17;;;17.75;;
78848;SDS011;68197;41.864;21.942;2023-04-12T04:12:02;23.40;;;16.52;;
78848;SDS011;68197;41.864;21.942;2023-04-12T04:14:28;22.65;;;14.48;;
78848;SDS011;68197;41.864;21.942;2023-04-12T04:16:56;20.42;;;12.60;;
78848;SDS011;68197;41.864;21.942;2023-04-12T04:19:22;18.08;;;12.20;;
78848;SDS011;68197;41.864;21.942;2023-04-12T04:21:48;19.50;;;12.48;;
78848;SDS011;68197;41.864;21.942;2023-04-12T04:24:15;17.77;;;11.60;;
78848;SDS011;68197;41.864;21.942;2023-04-12T04:26:43;16.73;;;11.48;;
78848;SDS011;68197;41.864;21.942;2023-04-12T04:29:09;16.88;;;11.43;;
78848;SDS011;68197;41.864;21.942;2023-04-12T04:31:36;16.67;;;11.05;;
78848;SDS011;68197;41.864;21.942;2023-04-12T04:34:03;17.67;;;11.98;;
78848;SDS011;68197;41.864;21.942;2023-04-12T04:36:33;19.17;;;12.77;;
78848;SDS011;68197;41.864;21.942;2023-04-12T04:39:00;22.50;;;12.90;;
78848;SDS011;68197;41.864;21.942;2023-04-12T04:43:54;29.75;;;17.45;;
78848;SDS011;68197;41.864;21.942;2023-04-12T04:46:20;20.70;;;14.27;;
78848;SDS011;68197;41.864;21.942;2023-04-12T04:48:47;21.02;;;14.75;;
78848;SDS011;68197;41.864;21.942;2023-04-12T04:51:13;25.23;;;16.40;;
78848;SDS011;68197;41.864;21.942;2023-04-12T04:53:39;27.15;;;18.73;;
78848;SDS011;68197;41.864;21.942;2023-04-12T04:56:05;28.25;;;18.67;;
78848;SDS011;68197;41.864;21.942;2023-04-12T04:58:32;18.92;;;11.70;;
78848;SDS011;68197;41.864;21.942;2023-04-12T05:00:58;16.65;;;11.52;;
78848;SDS011;68197;41.864;21.942;2023-04-12T05:03:24;16.65;;;11.70;;
78848;SDS011;68197;41.864;21.942;2023-04-12T05:05:54;16.88;;;11.52;;
78848;SDS011;68197;41.864;21.942;2023-04-12T05:08:20;18.27;;;12.50;;
78848;SDS011;68197;41.864;21.942;2023-04-12T05:10:55;15.68;;;13.13;;
78848;SDS011;68197;41.864;21.942;2023-04-12T05:13:22;16.75;;;11.13;;
78848;SDS011;68197;41.864;21.942;2023-04-12T05:15:48;17.40;;;10.98;;
78848;SDS011;68197;41.864;21.942;2023-04-12T05:18:15;16.02;;;10.10;;
78848;SDS011;68197;41.864;21.942;2023-04-12T05:20:42;12.23;;;7.97;;
78848;SDS011;68197;41.864;21.942;2023-04-12T05:23:08;12.35;;;8.27;;
78848;SDS011;68197;41.864;21.942;2023-04-12T05:25:34;11.30;;;6.95;;
78848;SDS011;68197;41.864;21.942;2023-04-12T05:28:00;9.82;;;7.47;;
78848;SDS011;68197;41.864;21.942;2023-04-12T05:30:26;11.93;;;7.75;;
78848;SDS011;68197;41.864;21.942;2023-04-12T05:32:53;11.02;;;7.82;;
78848;SDS011;68197;41.864;21.942;2023-04-12T05:35:19;12.13;;;8.18;;
78848;SDS011;68197;41.864;21.942;2023-04-12T05:37:45;8.30;;;5.32;;
78848;SDS011;68197;41.864;21.942;2023-04-12T05:40:11;9.60;;;6.05;;
78848;SDS011;68197;41.864;21.942;2023-04-12T05:42:37;7.72;;;5.57;;
78848;SDS011;68197;41.864;21.942;2023-04-12T05:45:04;7.55;;;5.15;;
78848;SDS011;68197;41.864;21.942;2023-04-12T05:47:30;8.77;;;6.00;;
78848;SDS011;68197;41.864;21.942;2023-04-12T05:49:56;7.32;;;5.35;;
78848;SDS011;68197;41.864;21.942;2023-04-12T05:52:23;6.78;;;4.95;;
78848;SDS011;68197;41.864;21.942;2023-04-12T05:54:51;6.90;;;4.55;;
78848;SDS011;68197;41.864;21.942;2023-04-12T05:57:17;7.30;;;4.63;;
78848;SDS011;68197;41.864;21.942;2023-04-12T05:59:43;5.10;;;3.67;;
78848;SDS011;68197;41.864;21.942;2023-04-12T06:02:09;5.53;;;4.13;;
78848;SDS011;68197;41.864;21.942;2023-04-12T06:04:36;5.38;;;3.33;;
78848;SDS011;68197;41.864;21.942;2023-04-12T06:07:04;6.20;;;3.53;;
78848;SDS011;68197;41.864;21.942;2023-04-12T06:09:30;5.15;;;2.75;;
78848;SDS011;68197;41.864;21.942;2023-04-12T06:11:57;5.25;;;3.33;;
78848;SDS011;68197;41.864;21.942;2023-04-12T06:14:23;6.82;;;4.18;;
78848;SDS011;68197;41.864;21.942;2023-04-12T06:16:49;6.43;;;3.38;;
78848;SDS011;68197;41.864;21.942;2023-04-12T06:19:15;4.40;;;2.30;;
78848;SDS011;68197;41.864;21.942;2023-04-12T06:21:41;5.35;;;3.53;;
78848;SDS011;68197;41.864;21.942;2023-04-12T06:24:07;5.47;;;3.25;;
78848;SDS011;68197;41.864;21.942;2023-04-12T06:26:34;6.03;;;3.00;;
78848;SDS011;68197;41.864;21.942;2023-04-12T06:29:00;4.00;;;2.10;;
78848;SDS011;68197;41.864;21.942;2023-04-12T06:31:26;3.70;;;2.00;;
78848;SDS011;68197;41.864;21.942;2023-04-12T06:33:52;3.67;;;2.45;;
78848;SDS011;68197;41.864;21.942;2023-04-12T06:36:19;3.78;;;2.20;;
78848;SDS011;68197;41.864;21.942;2023-04-12T06:38:45;3.28;;;2.38;;
78848;SDS011;68197;41.864;21.942;2023-04-12T06:41:12;4.60;;;2.30;;
78848;SDS011;68197;41.864;21.942;2023-04-12T06:43:38;8.82;;;2.53;;
78848;SDS011;68197;41.864;21.942;2023-04-12T06:46:05;5.82;;;2.55;;
78848;SDS011;68197;41.864;21.942;2023-04-12T06:48:32;5.15;;;2.35;;
78848;SDS011;68197;41.864;21.942;2023-04-12T06:50:59;5.43;;;4.20;;
78848;SDS011;68197;41.864;21.942;2023-04-12T06:53:25;4.60;;;2.60;;
78848;SDS011;68197;41.864;21.942;2023-04-12T06:55:51;4.90;;;3.28;;
78848;SDS011;68197;41.864;21.942;2023-04-12T06:58:18;7.93;;;3.17;;
78848;SDS011;68197;41.864;21.942;2023-04-12T07:00:44;4.53;;;2.70;;
78848;SDS011;68197;41.864;21.942;2023-04-12T07:03:10;4.15;;;2.30;;
78848;SDS011;68197;41.864;21.942;2023-04-12T07:05:37;3.63;;;2.78;;
78848;SDS011;68197;41.864;21.942;2023-04-12T07:08:03;4.43;;;3.20;;
78848;SDS011;68197;41.864;21.942;2023-04-12T07:10:30;4.75;;;3.00;;
78848;SDS011;68197;41.864;21.942;2023-04-12T07:12:56;4.95;;;2.75;;
78848;SDS011;68197;41.864;21.942;2023-04-12T07:15:27;2.83;;;1.88;;
78848;SDS011;68197;41.864;21.942;2023-04-12T07:17:53;4.10;;;2.65;;
78848;SDS011;68197;41.864;21.942;2023-04-12T07:20:20;3.60;;;1.98;;
78848;SDS011;68197;41.864;21.942;2023-04-12T07:22:46;3.67;;;2.30;;
78848;SDS011;68197;41.864;21.942;2023-04-12T07:25:12;3.28;;;2.05;;
78848;SDS011;68197;41.864;21.942;2023-04-12T07:27:38;4.65;;;2.65;;
78848;SDS011;68197;41.864;21.942;2023-04-12T07:30:04;3.13;;;1.65;;
78848;SDS011;68197;41.864;21.942;2023-04-12T07:32:30;3.70;;;2.30;;
78848;SDS011;68197;41.864;21.942;2023-04-12T07:34:57;6.28;;;3.78;;
78848;SDS011;68197;41.864;21.942;2023-04-12T07:37:23;4.57;;;1.75;;
78848;SDS011;68197;41.864;21.942;2023-04-12T07:39:49;3.17;;;1.80;;
78848;SDS011;68197;41.864;21.942;2023-04-12T07:42:15;5.05;;;2.15;;
78848;SDS011;68197;41.864;21.942;2023-04-12T07:44:41;2.65;;;1.73;;
78848;SDS011;68197;41.864;21.942;2023-04-12T07:47:08;4.38;;;2.33;;
78848;SDS011;68197;41.864;21.942;2023-04-12T07:49:34;3.28;;;1.73;;
78848;SDS011;68197;41.864;21.942;2023-04-12T07:52:00;3.33;;;1.95;;
78848;SDS011;68197;41.864;21.942;2023-04-12T07:54:26;3.75;;;1.77;;
78848;SDS011;68197;41.864;21.942;2023-04-12T07:57:00;3.83;;;2.20;;
78848;SDS011;68197;41.864;21.942;2023-04-12T07:59:27;3.90;;;2.05;;
78848;SDS011;68197;41.864;21.942;2023-04-12T08:01:53;4.45;;;1.83;;
78848;SDS011;68197;41.864;21.942;2023-04-12T08:04:19;3.50;;;2.38;;
78848;SDS011;68197;41.864;21.942;2023-04-12T08:06:45;3.10;;;1.50;;
78848;SDS011;68197;41.864;21.942;2023-04-12T08:09:12;3.08;;;1.77;;
78848;SDS011;68197;41.864;21.942;2023-04-12T08:11:38;7.07;;;2.60;;
78848;SDS011;68197;41.864;21.942;2023-04-12T08:14:04;4.47;;;2.72;;
78848;SDS011;68197;41.864;21.942;2023-04-12T08:16:30;6.10;;;3.67;;
78848;SDS011;68197;41.864;21.942;2023-04-12T08:18:57;4.22;;;3.03;;
78848;SDS011;68197;41.864;21.942;2023-04-12T08:21:23;4.57;;;2.50;;
78848;SDS011;68197;41.864;21.942;2023-04-12T08:23:49;4.35;;;2.95;;
78848;SDS011;68197;41.864;21.942;2023-04-12T08:26:16;3.42;;;2.10;;
78848;SDS011;68197;41.864;21.942;2023-04-12T08:28:42;5.00;;;3.50;;
78848;SDS011;68197;41.864;21.942;2023-04-12T08:31:08;5.22;;;4.13;;
78848;SDS011;68197;41.864;21.942;2023-04-12T08:33:35;3.47;;;2.45;;
78848;SDS011;68197;41.864;21.942;2023-04-12T08:36:01;2.90;;;2.30;;
78848;SDS011;68197;41.864;21.942;2023-04-12T08:38:27;4.38;;;2.80;;
78848;SDS011;68197;41.864;21.942;2023-04-12T08:40:53;4.40;;;2.90;;
78848;SDS011;68197;41.864;21.942;2023-04-12T08:43:21;3.10;;;2.17;;
78848;SDS011;68197;41.864;21.942;2023-04-12T08:45:47;2.97;;;1.80;;
78848;SDS011;68197;41.864;21.942;2023-04-12T08:48:15;3.20;;;2.33;;
78848;SDS011;68197;41.864;21.942;2023-04-12T08:50:42;5.05;;;3.22;;
78848;SDS011;68197;41.864;21.942;2023-04-12T08:53:09;2.58;;;1.60;;
78848;SDS011;68197;41.864;21.942;2023-04-12T08:55:36;3.78;;;2.35;;
78848;SDS011;68197;41.864;21.942;2023-04-12T08:58:02;3.47;;;2.47;;
78848;SDS011;68197;41.864;21.942;2023-04-12T09:00:32;3.47;;;2.78;;
78848;SDS011;68197;41.864;21.942;2023-04-12T09:02:58;5.80;;;3.38;;
78848;SDS011;68197;41.864;21.942;2023-04-12T09:05:28;3.08;;;2.08;;
78848;SDS011;68197;41.864;21.942;2023-04-12T09:07:54;3.22;;;1.77;;
78848;SDS011;68197;41.864;21.942;2023-04-12T09:10:30;2.95;;;2.00;;
78848;SDS011;68197;41.864;21.942;2023-04-12T09:12:58;3.47;;;2.05;;
78848;SDS011;68197;41.864;21.942;2023-04-12T09:15:24;4.05;;;2.38;;
78848;SDS011;68197;41.864;21.942;2023-04-12T09:18:01;4.38;;;2.83;;
78848;SDS011;68197;41.864;21.942;2023-04-12T09:20:28;3.95;;;2.58;;
78848;SDS011;68197;41.864;21.942;2023-04-12T09:22:54;5.55;;;3.45;;
78848;SDS011;68197;41.864;21.942;2023-04-12T09:25:36;6.78;;;4.13;;
78848;SDS011;68197;41.864;21.942;2023-04-12T09:28:03;4.90;;;2.20;;
78848;SDS011;68197;41.864;21.942;2023-04-12T09:30:29;3.08;;;1.58;;
78848;SDS011;68197;41.864;21.942;2023-04-12T09:33:09;4.18;;;2.17;;
78848;SDS011;68197;41.864;21.942;2023-04-12T09:35:36;2.60;;;1.38;;
78848;SDS011;68197;41.864;21.942;2023-04-12T09:38:06;9.52;;;3.90;;
78848;SDS011;68197;41.864;21.942;2023-04-12T09:40:33;4.55;;;2.70;;
78848;SDS011;68197;41.864;21.942;2023-04-12T09:43:02;7.00;;;3.70;;
78848;SDS011;68197;41.864;21.942;2023-04-12T09:45:33;4.80;;;2.63;;
78848;SDS011;68197;41.864;21.942;2023-04-12T09:47:59;3.03;;;1.70;;
78848;SDS011;68197;41.864;21.942;2023-04-12T09:50:26;3.63;;;2.00;;
78848;SDS011;68197;41.864;21.942;2023-04-12T09:52:56;2.15;;;1.58;;
78848;SDS011;68197;41.864;21.942;2023-04-12T09:55:23;3.30;;;2.20;;
78848;SDS011;68197;41.864;21.942;2023-04-12T09:57:50;3.70;;;2.50;;
78848;SDS011;68197;41.864;21.942;2023-04-12T10:00:16;3.20;;;1.60;;
78848;SDS011;68197;41.864;21.942;2023-04-12T10:02:44;3.08;;;2.10;;
78848;SDS011;68197;41.864;21.942;2023-04-12T10:05:11;2.75;;;1.63;;
78848;SDS011;68197;41.864;21.942;2023-04-12T10:07:41;4.25;;;2.10;;
78848;SDS011;68197;41.864;21.942;2023-04-12T10:10:11;3.15;;;1.52;;
78848;SDS011;68197;41.864;21.942;2023-04-12T10:12:38;3.95;;;2.00;;
78848;SDS011;68197;41.864;21.942;2023-04-12T10:15:06;2.63;;;1.30;;
78848;SDS011;68197;41.864;21.942;2023-04-12T10:17:39;5.82;;;2.90;;
78848;SDS011;68197;41.864;21.942;2023-04-12T10:20:06;6.32;;;3.75;;
78848;SDS011;68197;41.864;21.942;2023-04-12T10:22:34;5.97;;;2.55;;
78848;SDS011;68197;41.864;21.942;2023-04-12T10:25:00;5.15;;;2.58;;
78848;SDS011;68197;41.864;21.942;2023-04-12T10:27:27;2.20;;;1.13;;
78848;SDS011;68197;41.864;21.942;2023-04-12T10:29:53;2.05;;;1.17;;
78848;SDS011;68197;41.864;21.942;2023-04-12T10:32:23;3.15;;;1.65;;
78848;SDS011;68197;41.864;21.942;2023-04-12T10:34:50;7.90;;;3.63;;
78848;SDS011;68197;41.864;21.942;2023-04-12T10:37:17;3.65;;;2.38;;
78848;SDS011;68197;41.864;21.942;2023-04-12T10:39:43;5.82;;;3.33;;
78848;SDS011;68197;41.864;21.942;2023-04-12T10:42:15;3.42;;;1.80;;
78848;SDS011;68197;41.864;21.942;2023-04-12T10:44:42;6.65;;;3.05;;
78848;SDS011;68197;41.864;21.942;2023-04-12T10:47:08;13.48;;;5.95;;
78848;SDS011;68197;41.864;21.942;2023-04-12T10:49:35;5.40;;;2.60;;
78848;SDS011;68197;41.864;21.942;2023-04-12T10:54:34;5.60;;;3.45;;
78848;SDS011;68197;41.864;21.942;2023-04-12T10:57:00;3.90;;;2.33;;
78848;SDS011;68197;41.864;21.942;2023-04-12T11:02:13;5.00;;;2.58;;
78848;SDS011;68197;41.864;21.942;2023-04-12T11:05:02;5.00;;;3.00;;
78848;SDS011;68197;41.864;21.942;2023-04-12T11:07:37;6.05;;;4.28;;
78848;SDS011;68197;41.864;21.942;2023-04-12T11:10:10;5.40;;;3.10;;
78848;SDS011;68197;41.864;21.942;2023-04-12T11:12:38;6.40;;;3.75;;
78848;SDS011;68197;41.864;21.942;2023-04-12T11:15:05;7.78;;;3.97;;
78848;SDS011;68197;41.864;21.942;2023-04-12T11:17:32;7.28;;;3.83;;
78848;SDS011;68197;41.864;21.942;2023-04-12T11:19:58;4.10;;;3.08;;
78848;SDS011;68197;41.864;21.942;2023-04-12T11:22:31;3.45;;;1.88;;
78848;SDS011;68197;41.864;21.942;2023-04-12T11:24:58;4.93;;;3.22;;
78848;SDS011;68197;41.864;21.942;2023-04-12T11:27:25;6.07;;;3.75;;
78848;SDS011;68197;41.864;21.942;2023-04-12T11:29:53;6.55;;;3.70;;
78848;SDS011;68197;41.864;21.942;2023-04-12T11:32:24;6.47;;;3.90;;
78848;SDS011;68197;41.864;21.942;2023-04-12T11:34:52;6.53;;;4.55;;
78848;SDS011;68197;41.864;21.942;2023-04-12T11:37:18;5.25;;;3.28;;
78848;SDS011;68197;41.864;21.942;2023-04-12T11:39:45;5.00;;;3.20;;
78848;SDS011;68197;41.864;21.942;2023-04-12T11:42:16;5.35;;;3.47;;
78848;SDS011;68197;41.864;21.942;2023-04-12T11:44:43;6.60;;;2.97;;
78848;SDS011;68197;41.864;21.942;2023-04-12T11:47:17;4.63;;;2.92;;
78848;SDS011;68197;41.864;21.942;2023-04-12T11:49:47;6.43;;;3.30;;
78848;SDS011;68197;41.864;21.942;2023-04-12T11:52:14;4.43;;;2.40;;
78848;SDS011;68197;41.864;21.942;2023-04-12T11:54:41;4.43;;;2.40;;
78848;SDS011;68197;41.864;21.942;2023-04-12T11:57:09;4.32;;;1.75;;
78848;SDS011;68197;41.864;21.942;2023-04-12T11:59:36;4.03;;;2.53;;
78848;SDS011;68197;41.864;21.942;2023-04-12T12:02:02;6.75;;;3.70;;
78848;SDS011;68197;41.864;21.942;2023-04-12T12:04:28;8.82;;;4.15;;
78848;SDS011;68197;41.864;21.942;2023-04-12T12:06:56;6.57;;;3.47;;
78848;SDS011;68197;41.864;21.942;2023-04-12T12:09:23;7.40;;;3.38;;
78848;SDS011;68197;41.864;21.942;2023-04-12T12:11:49;4.53;;;2.95;;
78848;SDS011;68197;41.864;21.942;2023-04-12T12:14:19;4.00;;;2.30;;
78848;SDS011;68197;41.864;21.942;2023-04-12T12:16:53;5.97;;;3.88;;
78848;SDS011;68197;41.864;21.942;2023-04-12T12:19:55;6.65;;;5.45;;
78848;SDS011;68197;41.864;21.942;2023-04-12T12:22:14;5.65;;;3.67;;
78848;SDS011;68197;41.864;21.942;2023-04-12T12:24:43;4.53;;;3.42;;
78848;SDS011;68197;41.864;21.942;2023-04-12T12:27:10;3.63;;;2.28;;
78848;SDS011;68197;41.864;21.942;2023-04-12T12:29:37;3.58;;;1.73;;
78848;SDS011;68197;41.864;21.942;2023-04-12T12:32:10;4.22;;;2.28;;
78848;SDS011;68197;41.864;21.942;2023-04-12T12:34:37;3.97;;;2.67;;
78848;SDS011;68197;41.864;21.942;2023-04-12T12:37:06;3.70;;;1.77;;
78848;SDS011;68197;41.864;21.942;2023-04-12T12:39:33;3.88;;;1.70;;
78848;SDS011;68197;41.864;21.942;2023-04-12T12:42:00;5.15;;;3.60;;
78848;SDS011;68197;41.864;21.942;2023-04-12T12:44:29;4.38;;;2.25;;
78848;SDS011;68197;41.864;21.942;2023-04-12T12:46:57;4.38;;;2.25;;
78848;SDS011;68197;41.864;21.942;2023-04-12T12:49:23;3.88;;;2.65;;
78848;SDS011;68197;41.864;21.942;2023-04-12T12:51:50;5.53;;;2.97;;
78848;SDS011;68197;41.864;21.942;2023-04-12T12:54:16;4.00;;;3.60;;
78848;SDS011;68197;41.864;21.942;2023-04-12T12:56:42;3.03;;;1.83;;
78848;SDS011;68197;41.864;21.942;2023-04-12T12:59:08;5.95;;;3.70;;
78848;SDS011;68197;41.864;21.942;2023-04-12T13:01:35;5.18;;;3.45;;
78848;SDS011;68197;41.864;21.942;2023-04-12T13:04:01;5.63;;;2.78;;
78848;SDS011;68197;41.864;21.942;2023-04-12T13:06:27;4.53;;;2.40;;
78848;SDS011;68197;41.864;21.942;2023-04-12T13:08:53;3.83;;;2.05;;
78848;SDS011;68197;41.864;21.942;2023-04-12T13:11:19;3.50;;;1.58;;
78848;SDS011;68197;41.864;21.942;2023-04-12T13:13:46;4.03;;;2.38;;
78848;SDS011;68197;41.864;21.942;2023-04-12T13:16:12;4.07;;;1.83;;
78848;SDS011;68197;41.864;21.942;2023-04-12T13:18:38;3.53;;;1.83;;
78848;SDS011;68197;41.864;21.942;2023-04-12T13:21:04;5.40;;;2.42;;
78848;SDS011;68197;41.864;21.942;2023-04-12T13:23:30;4.65;;;2.90;;
78848;SDS011;68197;41.864;21.942;2023-04-12T13:25:57;4.10;;;2.58;;
78848;SDS011;68197;41.864;21.942;2023-04-12T13:28:23;5.85;;;3.60;;
78848;SDS011;68197;41.864;21.942;2023-04-12T13:30:49;6.05;;;3.15;;
78848;SDS011;68197;41.864;21.942;2023-04-12T13:33:15;3.75;;;2.13;;
78848;SDS011;68197;41.864;21.942;2023-04-12T13:35:42;10.38;;;6.25;;
78848;SDS011;68197;41.864;21.942;2023-04-12T13:38:09;3.22;;;2.05;;
78848;SDS011;68197;41.864;21.942;2023-04-12T13:40:35;6.93;;;3.78;;
78848;SDS011;68197;41.864;21.942;2023-04-12T13:43:01;3.30;;;1.65;;
78848;SDS011;68197;41.864;21.942;2023-04-12T13:45:28;6.38;;;2.83;;
78848;SDS011;68197;41.864;21.942;2023-04-12T13:47:54;6.13;;;3.17;;
78848;SDS011;68197;41.864;21.942;2023-04-12T13:50:24;6.38;;;3.17;;
78848;SDS011;68197;41.864;21.942;2023-04-12T13:52:50;5.35;;;3.03;;
78848;SDS011;68197;41.864;21.942;2023-04-12T13:55:16;7.18;;;3.05;;
78848;SDS011;68197;41.864;21.942;2023-04-12T13:57:42;8.25;;;4.32;;
78848;SDS011;68197;41.864;21.942;2023-04-12T14:00:08;5.90;;;3.22;;
78848;SDS011;68197;41.864;21.942;2023-04-12T14:02:35;3.60;;;2.05;;
78848;SDS011;68197;41.864;21.942;2023-04-12T14:05:01;4.68;;;2.63;;
78848;SDS011;68197;41.864;21.942;2023-04-12T14:07:28;6.18;;;2.80;;
78848;SDS011;68197;41.864;21.942;2023-04-12T14:09:54;2.40;;;0.75;;
78848;SDS011;68197;41.864;21.942;2023-04-12T14:12:21;3.75;;;2.35;;
78848;SDS011;68197;41.864;21.942;2023-04-12T14:14:47;5.60;;;3.30;;
78848;SDS011;68197;41.864;21.942;2023-04-12T14:17:14;4.57;;;1.35;;
78848;SDS011;68197;41.864;21.942;2023-04-12T14:19:40;7.25;;;3.95;;
78848;SDS011;68197;41.864;21.942;2023-04-12T14:22:06;5.60;;;3.05;;
78848;SDS011;68197;41.864;21.942;2023-04-12T14:24:32;5.60;;;3.20;;
78848;SDS011;68197;41.864;21.942;2023-04-12T14:26:58;6.10;;;3.20;;
78848;SDS011;68197;41.864;21.942;2023-04-12T14:29:25;23.92;;;12.55;;
78848;SDS011;68197;41.864;21.942;2023-04-12T14:31:51;13.68;;;10.30;;
78848;SDS011;68197;41.864;21.942;2023-04-12T14:34:17;4.38;;;1.58;;
78848;SDS011;68197;41.864;21.942;2023-04-12T14:36:44;5.43;;;2.83;;
78848;SDS011;68197;41.864;21.942;2023-04-12T14:39:10;7.63;;;4.35;;
78848;SDS011;68197;41.864;21.942;2023-04-12T14:41:36;4.97;;;2.63;;
78848;SDS011;68197;41.864;21.942;2023-04-12T14:44:02;6.78;;;3.45;;
78848;SDS011;68197;41.864;21.942;2023-04-12T14:46:28;4.35;;;1.80;;